Tiempo atmosférico en la estación meteorológica de Tacoronte, Santa Cruz de Tenerife (310 m.)



Fecha
DESCASC
Temp. máxima en grados centígrados (hora)
DESCASC
Temp. mínima en grados centígrados (hora)
DESCASC
Temp. media en grados centígrados
DESCASC
Racha de viento máxima en m/sg (hora)
DESCASC
Velocidad máxima media en intervalos de 10 minutos(hora)
DESCASC
Precipitaciones diarias en mm
DESCASC
Precipitaciones de 00:00 a 06:00 en mm
DESCASC
Precipitaciones de 06:00 a 12:00 en mm
DESCASC
Precipitaciones de 12:00 a 18:00 en mm
DESCASC
Precipitaciones de 18:00 a 24:00 en mm
DESCASC
20-02-2020 18.9 (16:50) 14.4 (04:30) 16.6 8.33 (16:40) 4.72 (15:00) 0 0 0 0 0
18-02-2020 20.2 (16:10) 13.2 (01:10) 16.7 11.67 (14:00) 7.78 (14:00) 0 0 0 0 0
17-02-2020 21.3 (14:10) 13.5 (06:40) 17.4 9.44 (12:20) 6.39 (13:20) 0 0 0 0 0
16-02-2020 20.6 (14:40) 11.7 (00:00) 16.2 8.89 (15:10) 5.56 (15:30) 0 0 0 0 0
15-02-2020 24 (10:50) 13.7 (23:30) 18.8 8.33 (01:10) 5.83 (02:10) 0 0 0 0 0
14-02-2020 27.7 (12:40) 18.1 (00:00) 22.9 8.06 (01:20) 5 (10:10) 0 0 0 0 0
13-02-2020 27 (17:00) 15.8 (00:00) 21.4 8.61 (22:30) 5.28 (21:20) 0 0 0 0 0
12-02-2020 26.7 (14:20) 16.4 (00:00) 21.6 9.17 (07:20) 5.83 (07:30) 0 0 0 0 0
11-02-2020 27 (15:30) 12.1 (00:00) 19.6 11.94 (13:20) 7.22 (12:20) 0 0 0 0 0
10-02-2020 20.8 (17:20) 13.4 (00:00) 17.1 13.61 (12:30) 7.78 (07:50) 0 0 0 0 0
09-02-2020 19.1 (15:00) 14.5 (00:00) 16.8 8.61 (15:40) 4.72 (15:10) 3.8 0.6 1.4 0 1.8
08-02-2020 20.4 (13:10) 12.3 (00:00) 16.3 10 (17:10) 7.22 (17:10) 0 0 0 0 0
07-02-2020 21.2 (12:50) 13.9 (00:00) 17.6 7.22 (14:50) 4.17 (05:40) 0 0 0 0 0
06-02-2020 21.3 (14:50) 12.7 (00:00) 17 4.44 (08:30) 3.61 (08:20) 0 0 0 0 0
05-02-2020 23.1 (01:50) 16.3 (00:00) 19.7 6.94 (00:20) 3.61 (00:20) 0 0 0 0 0
04-02-2020 26.9 (13:50) 18.1 (00:00) 22.5 22.78 (09:20) 10.83 (10:20) 0 0 0 0 0
03-02-2020 27.4 (15:40) 16.7 (03:00) 22.1 12.5 (07:20) 6.94 (23:50) 0 0 0 0 0
02-02-2020 24.6 (12:40) 15.4 (00:00) 20 8.89 (01:30) 5 (03:30) 0 0 0 0 0
01-02-2020 26.6 (15:00) 16 (00:00) 21.3 10.83 (13:10) 6.94 (13:20) 0 0 0 0 0
31-01-2020 26.3 (15:40) 17.2 (00:00) 21.8 6.39 (07:00) 4.17 (03:30) 0 0 0 0 0
30-01-2020 26.8 (11:30) 15.2 (00:00) 21 6.39 (08:10) 3.89 (08:20) 0 0 0 0 0
29-01-2020 24 (15:00) 12.3 (00:00) 18.2 6.39 (04:20) 5 (06:30) 0 0 0 0 0
28-01-2020 21.8 (17:00) 11.8 (00:00) 16.8 10 (02:40) 5 (03:00) 0 0 0 0 0
27-01-2020 19.6 (13:40) 11.9 (00:00) 15.8 9.72 (13:10) 6.11 (13:20) 0 0 0 0 0
26-01-2020 18.1 (11:30) 11.4 (00:00) 14.8 7.22 (23:10) 5.28 (23:10) 0 0 0 0 0
25-01-2020 19.7 (15:10) 12.5 (00:00) 16.1 6.11 (06:10) 2.78 (12:50) 0 0 0 0 0
24-01-2020 18.9 (12:30) 11.3 (00:00) 15.1 7.5 (13:10) 3.89 (16:30) 0 0 0 0 0
23-01-2020 19 (15:40) 12 (00:00) 15.5 6.67 (01:20) 4.17 (01:20) 0.6 0.4 0.2 0 0
22-01-2020 18.4 (15:10) 9.6 (00:00) 14 6.11 (15:20) 4.17 (08:50) 0 0 0 0 0

Gráficas

Temp. máximas Temp. mínimas Temp. medias Precipitaciones Rachas de viento máximas Velocidades máximas media en intervalos de 10 minutos

Datos horarios

Fecha y hora oficial Temperatura (ºC) Velocidad del viento (km/h) Dirección del viento Racha (km/h) Dirección de racha Precipitación (mm) Presión (hPa) Tendencia (hPa) Humedad (%)
2020-02-20 23:00:00 15.2 9 Norte 18 Norte 0 -- -- 70
2020-02-20 22:00:00 15.4 8 Norte 18 Nordeste 0 -- -- 62
2020-02-20 21:00:00 15.4 9 Nordeste 18 Norte 0 -- -- 63
2020-02-20 20:00:00 15.5 8 Norte 21 Nordeste 0 -- -- 70
2020-02-20 19:00:00 15.4 11 Nordeste 21 Nordeste 0 -- -- 70
2020-02-20 18:00:00 17.9 13 Nordeste 24 Nordeste 0 -- -- 60
2020-02-20 17:00:00 18.3 13 Norte 30 Norte 0 -- -- 61
2020-02-20 16:00:00 18.1 11 Norte 24 Norte 0 -- -- 60
2020-02-20 15:00:00 18.3 17 Nordeste 28 Este 0 -- -- 62
2020-02-20 14:00:00 17.4 10 Norte 20 Norte 0 -- -- 68
2020-02-20 13:00:00 17.9 10 Norte 26 Nordeste 0 -- -- 60
2020-02-20 12:00:00 17.9 9 Nordeste 24 Nordeste 0 -- -- 60
2020-02-20 11:00:00 16.8 11 Nordeste 22 Nordeste 0 -- -- 64
2020-02-20 10:00:00 15.7 10 Nordeste 18 Nordeste 0 -- -- 67
2020-02-20 09:00:00 15.1 3 Oeste 26 Nordeste 0 -- -- 65
2020-02-20 08:00:00 14.8 13 Nordeste 23 Este 0 -- -- 67
2020-02-20 07:00:00 14.7 5 Nordeste 18 Nordeste 0 -- -- 69
2020-02-20 06:00:00 14.7 10 Nordeste 24 Nordeste 0 -- -- 69
2020-02-20 05:00:00 -- -- -- -- -- -- -- -- --
2020-02-20 04:00:00 14.6 6 Norte 20 Nordeste 0 -- -- 73
2020-02-20 03:00:00 14.6 10 Nordeste 24 Nordeste 0 -- -- 72
2020-02-20 02:00:00 14.8 13 Nordeste 20 Nordeste 0 -- -- 72
2020-02-20 01:00:00 14.8 9 Nordeste 23 Este 0 -- -- 70
2020-02-20 00:00:00 14.9 11 Nordeste 27 Este 0 -- -- 73
2020-02-19 23:00:00 15 10 Nordeste 22 Nordeste 0 -- -- 74
2020-02-19 22:00:00 14.9 9 Nordeste 27 Nordeste 0 -- -- 75
2020-02-19 21:00:00 15.1 12 Nordeste 24 Nordeste 0 -- -- 73
2020-02-19 20:00:00 15.3 14 Nordeste 23 Nordeste 0 -- -- 72
2020-02-19 19:00:00 15.4 15 Nordeste 37 Nordeste 0 -- -- 73
2020-02-19 18:00:00 16 28 Nordeste 42 Nordeste 0 -- -- 75
2020-02-19 17:00:00 16.9 29 Nordeste 44 Nordeste 0 -- -- 72
2020-02-19 16:00:00 18 29 Nordeste 43 Nordeste 0 -- -- 64
2020-02-19 15:00:00 19.2 27 Nordeste 47 Nordeste 0 -- -- 64
2020-02-19 14:00:00 18.8 32 Nordeste -- -- -- -- -- 61
2020-02-19 13:00:00 18.8 32 Nordeste 45 Nordeste 0 -- -- 65
2020-02-19 12:00:00 18.6 26 Nordeste 40 Nordeste 0 -- -- 65
2020-02-19 11:00:00 17.4 24 Nordeste 35 Nordeste 0 -- -- 69
2020-02-19 10:00:00 17.3 14 Este 23 Nordeste 0 -- -- 65
2020-02-19 09:00:00 16 12 Nordeste 23 Nordeste 0 -- -- 71
2020-02-19 08:00:00 15.4 11 Este 28 Este 0 -- -- 74
2020-02-19 07:00:00 15.2 8 Este 25 Este 0 -- -- 76
2020-02-19 06:00:00 15.2 12 Este 23 Este 0 -- -- 76
2020-02-19 05:00:00 15 10 Este 29 Nordeste 0 -- -- 76
2020-02-19 04:00:00 15.1 19 Este 30 Nordeste 0 -- -- 77
2020-02-19 03:00:00 15 10 Este 31 Este 0 -- -- 71
2020-02-19 02:00:00 15.7 17 Nordeste 31 Este 0 -- -- 79
2020-02-19 01:00:00 15.9 12 Este 28 Este 0 -- -- 74
2020-02-19 00:00:00 15.7 13 Este 32 Este 0 -- -- 73
2020-02-18 23:00:00 15.9 18 Nordeste 28 Este 0 -- -- 73
2020-02-18 22:00:00 16.1 13 Este 32 Nordeste 0 -- -- 75
2020-02-18 21:00:00 16.2 18 Nordeste 33 Nordeste 0 -- -- 79
2020-02-18 20:00:00 16.8 9 Nordeste 27 Nordeste 0 -- -- 70
2020-02-18 19:00:00 16.6 17 Nordeste 33 Este 0 -- -- 74
2020-02-18 18:00:00 17.5 19 Nordeste 36 Nordeste 0 -- -- 73
2020-02-18 17:00:00 19.3 23 Nordeste 41 Nordeste 0 -- -- 64
2020-02-18 16:00:00 20.1 22 Nordeste 40 Nordeste 0 -- -- 62
2020-02-18 15:00:00 19.7 25 Nordeste 39 Nordeste 0 -- -- 60
2020-02-18 14:00:00 19.7 28 Nordeste 42 Este 0 -- -- 58
2020-02-18 13:00:00 18.7 20 Nordeste 34 Nordeste 0 -- -- 65
2020-02-18 12:00:00 18.3 18 Nordeste 31 Nordeste 0 -- -- 67
2020-02-18 11:00:00 17.1 16 Nordeste 29 Nordeste 0 -- -- 72
2020-02-18 10:00:00 16.3 14 Nordeste 26 Nordeste 0 -- -- 78
2020-02-18 09:00:00 15.3 13 Nordeste 22 Nordeste 0 -- -- 85
2020-02-18 08:00:00 15 7 Este 16 Este 0 -- -- 86
2020-02-18 07:00:00 14.8 6 Este 15 Este 0 -- -- 87
2020-02-18 06:00:00 14.1 9 Este 17 Este 0 -- -- 88
2020-02-18 05:00:00 13.9 8 Sudeste 14 Sudeste 0 -- -- 87
2020-02-18 04:00:00 13.7 6 Sudeste 13 Sur 0 -- -- 88
2020-02-18 03:00:00 13.6 7 Sudeste 20 Sudeste 0 -- -- 87
2020-02-18 02:00:00 13.6 12 Sudeste 17 Este 0 -- -- 88
2020-02-18 01:00:00 13.4 13 Sudeste 16 Sudeste 0 -- -- 87
2020-02-18 00:00:00 13.9 7 Sudeste 9 Sudeste 0 -- -- 86
2020-02-17 23:00:00 14.6 5 Sur 9 Sur 0 -- -- 87
2020-02-17 22:00:00 14.4 5 Sudeste 11 Este 0 -- -- 86
2020-02-17 21:00:00 15.2 9 Este 15 Este 0 -- -- 87
2020-02-17 20:00:00 15.8 9 Este 25 Nordeste 0 -- -- 87
2020-02-17 19:00:00 16.2 12 Nordeste 26 Nordeste 0 -- -- 86
2020-02-17 18:00:00 18.9 12 Nordeste 25 Nordeste 0 -- -- 74
2020-02-17 17:00:00 19.1 16 Nordeste 30 Nordeste 0 -- -- 72
2020-02-17 16:00:00 19.5 11 Norte 23 Nordeste 0 -- -- 74
2020-02-17 15:00:00 20.4 11 Noroeste 29 Nordeste 0 -- -- 69
2020-02-17 14:00:00 21 16 Nordeste 34 Nordeste 0 -- -- 66
2020-02-17 13:00:00 20 22 Nordeste 34 Nordeste 0 -- -- 70
2020-02-17 12:00:00 19.7 18 Nordeste 28 Nordeste 0 -- -- 69
2020-02-17 11:00:00 18.8 13 Nordeste 24 Nordeste 0 -- -- 73
2020-02-17 10:00:00 17.3 10 Nordeste 17 Este 0 -- -- 77
2020-02-17 09:00:00 14.8 5 Sur 12 Sudeste 0 -- -- 87
2020-02-17 08:00:00 13.5 8 Sudeste 13 Sudeste 0 -- -- 88
2020-02-17 07:00:00 13.7 6 Sudeste 13 Sudeste 0 -- -- 86
2020-02-17 06:00:00 14.4 5 Sudeste 9 Sudeste 0 -- -- 88
2020-02-17 05:00:00 15.1 4 Nordeste 15 Nordeste 0 -- -- 88
2020-02-17 04:00:00 15 8 Este 14 Sudeste 0 -- -- 88
2020-02-17 03:00:00 14.1 6 Sur 11 Sur 0 -- -- 89
2020-02-17 02:00:00 14.2 5 Sur 10 Sudeste 0 -- -- 91
2020-02-17 01:00:00 14.1 8 Sudeste 11 Sur 0 -- -- 89
2020-02-17 00:00:00 14.1 8 Sudeste 11 Sudeste 0 -- -- 88
2020-02-16 23:00:00 14.6 5 Sur 9 Sur 0 -- -- 88
2020-02-16 22:00:00 14.4 7 Sudeste 12 Sur 0 -- -- 88
2020-02-16 21:00:00 14.6 6 Sur 8 Sudeste 0 -- -- 86
2020-02-16 20:00:00 15.8 3 Sur 10 Sudoeste 0 -- -- 85
2020-02-16 19:00:00 17.1 5 Noroeste 14 Norte 0 -- -- 76
2020-02-16 18:00:00 19.7 5 Norte 18 Nordeste 0 -- -- 68
2020-02-16 17:00:00 20.1 11 Nordeste 26 Nordeste 0 -- -- 67
2020-02-16 16:00:00 20 18 Nordeste 32 Nordeste 0 -- -- 68
2020-02-16 15:00:00 20.3 19 Nordeste 27 Nordeste 0 -- -- 66
2020-02-16 14:00:00 20.2 17 Nordeste 27 Nordeste 0 -- -- 65
2020-02-16 13:00:00 20.5 16 Nordeste 26 Norte 0 -- -- 63
2020-02-16 12:00:00 18.7 7 Oeste 13 Oeste 0 -- -- 69
2020-02-16 11:00:00 17.5 6 Oeste 11 Oeste 0 -- -- 70
2020-02-16 10:00:00 16.8 3 Oeste 10 Sudoeste 0 -- -- 71
2020-02-16 09:00:00 13.8 4 Sudeste 17 Sudeste 0 -- -- 74
2020-02-16 08:00:00 11.8 13 Sudeste 17 Sudeste 0 -- -- 74
2020-02-16 07:00:00 12.4 10 Sudeste 18 Sudeste 0 -- -- 75
2020-02-16 06:00:00 12.2 13 Sudeste 18 Sudeste 0 -- -- 74
2020-02-16 05:00:00 12.2 15 Sudeste 18 Sudeste 0 -- -- 72
2020-02-16 04:00:00 12.5 14 Sudeste 19 Sudeste 0 -- -- 74
2020-02-16 03:00:00 12.9 12 Sudeste 18 Sudeste 0 -- -- 68
2020-02-16 02:00:00 12.7 12 Sudeste 18 Sudeste 0 -- -- 66
2020-02-16 01:00:00 13.3 12 Sudeste 17 Sudeste 0 -- -- 55
2020-02-16 00:00:00 14.1 4 Sudeste 18 Este 0 -- -- 66
2020-02-15 23:00:00 14.7 14 Este 21 Este 0 -- -- 69
2020-02-15 22:00:00 14.7 7 Este 14 Este 0 -- -- 67
2020-02-15 21:00:00 15 7 Este 20 Nordeste 0 -- -- 76
2020-02-15 20:00:00 16 7 Nordeste 13 Este 0 -- -- 77
2020-02-15 19:00:00 17.6 4 Sudoeste 8 Oeste 0 -- -- 72
2020-02-15 18:00:00 20.6 4 Oeste 15 Norte 0 -- -- 61
2020-02-15 17:00:00 21.4 6 Norte 15 Noroeste 0 -- -- 58
2020-02-15 16:00:00 22.3 7 Norte 16 Noroeste 0 -- -- 55
2020-02-15 15:00:00 22.9 8 Norte 17 Norte 0 -- -- 45
2020-02-15 14:00:00 22.7 6 Noroeste 17 Norte 0 -- -- 54
2020-02-15 13:00:00 22.3 5 Noroeste 18 Norte 0 -- -- 58
2020-02-15 12:00:00 21.7 6 Norte 12 Norte 0 -- -- 55
2020-02-15 11:00:00 23.6 8 Nordeste 15 Este 0 -- -- 41
2020-02-15 10:00:00 21 3 Nordeste 12 Este 0 -- -- 40
2020-02-15 09:00:00 19.6 10 Sudeste 17 Sudeste 0 -- -- 25
2020-02-15 08:00:00 19 12 Sudeste 19 Sudeste 0 -- -- 26
2020-02-15 07:00:00 19 12 Sudeste 26 Este 0 -- -- 25
2020-02-15 06:00:00 19.4 19 Sudeste 26 Sudeste 0 -- -- 27
2020-02-15 05:00:00 19.2 16 Sudeste 29 Sudeste 0 -- -- 24
2020-02-15 04:00:00 19.6 15 Sudeste 23 Sudeste 0 -- -- 23
2020-02-15 03:00:00 19.8 19 Sudeste 28 Sudeste 0 -- -- 21
2020-02-15 02:00:00 20.5 18 Sudeste 30 Sudeste 0 -- -- 23
2020-02-15 01:00:00 20.5 18 Sudeste 26 Sudeste 0 -- -- 30
2020-02-15 00:00:00 18.4 14 Sudeste 21 Sudeste 0 -- -- 40
2020-02-14 23:00:00 18.3 10 Sudeste 13 Sur 0 -- -- 41
2020-02-14 22:00:00 19.1 10 Sudeste 13 Sudeste 0 -- -- 41
2020-02-14 21:00:00 19.9 8 Sur 13 Sudeste 0 -- -- 40
2020-02-14 20:00:00 20.2 9 Sudeste 12 Sudeste 0 -- -- 39
2020-02-14 19:00:00 21.5 3 Sudoeste 4 Oeste 0 -- -- 30
2020-02-14 18:00:00 22.6 3 Oeste 9 Oeste 0 -- -- 39
2020-02-14 17:00:00 24.4 3 Oeste 15 Oeste 0 -- -- 33
2020-02-14 16:00:00 24.7 10 Oeste 20 Sudoeste 0 -- -- 32
2020-02-14 15:00:00 23.5 9 Oeste 18 Sudoeste 0 -- -- 50
2020-02-14 14:00:00 22.9 9 Oeste 20 Sudeste 0 -- -- 44
2020-02-14 13:00:00 26 5 Oeste 23 Este 0 -- -- 34
2020-02-14 12:00:00 25.5 10 Sudeste 27 Sudeste 0 -- -- 21
2020-02-14 11:00:00 23.5 16 Sudeste 29 Sudeste 0 -- -- 20
2020-02-14 10:00:00 22.5 17 Sudeste 27 Sudeste 0 -- -- 21
2020-02-14 09:00:00 22 16 Sudeste 26 Sudeste 0 -- -- 20
2020-02-14 08:00:00 20.2 12 Sudeste 25 Sudeste 0 -- -- 23
2020-02-14 07:00:00 19.6 15 Sudeste 23 Sudeste 0 -- -- 30
2020-02-14 06:00:00 18.9 15 Sudeste 21 Sudeste 0 -- -- 37
2020-02-14 05:00:00 19.2 12 Sudeste 18 Sudeste 0 -- -- 39
2020-02-14 04:00:00 19.1 10 Sudeste 15 Sudeste 0 -- -- 41
2020-02-14 03:00:00 19.2 7 Sudeste 17 Este 0 -- -- 41
2020-02-14 02:00:00 20.3 10 Sudeste 29 Sudeste 0 -- -- 36
2020-02-14 01:00:00 20.5 14 Sudeste 26 Sudeste 0 -- -- 35
2020-02-14 00:00:00 20.9 15 Sudeste 30 Sudeste 0 -- -- 24
2020-02-13 23:00:00 20.9 17 Sudeste 31 Sudeste 0 -- -- 21
2020-02-13 22:00:00 20.9 15 Sudeste 31 Este 0 -- -- 24
2020-02-13 21:00:00 21 16 Sudeste 26 Sudeste 0 -- -- 23
2020-02-13 20:00:00 20.2 15 Sudeste 22 Sudeste 0 -- -- 25
2020-02-13 19:00:00 21.2 12 Sudeste 17 Sudeste 0 -- -- 26
2020-02-13 18:00:00 25.2 4 Sudeste 11 Este 0 -- -- 22
2020-02-13 17:00:00 27 4 Noroeste 11 Oeste 0 -- -- 21
2020-02-13 16:00:00 26.6 4 Oeste 10 Oeste 0 -- -- 15
2020-02-13 15:00:00 24.9 6 Oeste 10 Oeste 0 -- -- 25
2020-02-13 14:00:00 24.7 5 Oeste 11 Oeste 0 -- -- 28
2020-02-13 13:00:00 23.6 5 Oeste 10 Oeste 0 -- -- 29
2020-02-13 12:00:00 23.9 5 Oeste 7 Oeste 0 -- -- 19
2020-02-13 11:00:00 22.1 3 Oeste 10 Sudoeste 0 -- -- 22
2020-02-13 10:00:00 21.4 2 Sudoeste 9 Sudeste 0 -- -- 24
2020-02-13 09:00:00 18.3 4 Sur 15 Sur 0 -- -- 28
2020-02-13 08:00:00 18.2 7 Sudeste 24 Este 0 -- -- 25
2020-02-13 07:00:00 16.6 6 Sur 15 Sudeste 0 -- -- 29
2020-02-13 06:00:00 16.1 5 Sudoeste 10 Sudeste 0 -- -- 38
2020-02-13 05:00:00 16 5 Sur 9 Este 0 -- -- 42
2020-02-13 04:00:00 19.4 11 Sudeste 16 Sudeste 0 -- -- 20
2020-02-13 03:00:00 19.4 11 Sudeste 17 Sudeste 0 -- -- 19
2020-02-13 02:00:00 19 9 Sudeste 14 Sudeste 0 -- -- 20
2020-02-13 01:00:00 18 5 Sudeste 10 Sudeste 0 -- -- 22
2020-02-13 00:00:00 17.4 4 Sur 13 Sudeste 0 -- -- 24
2020-02-12 23:00:00 18.8 4 Sudeste 18 Sudeste 0 -- -- 21
2020-02-12 22:00:00 18.9 12 Sudeste 17 Sudeste 0 -- -- 23
2020-02-12 21:00:00 17.9 5 Sur 13 Sur 0 -- -- 30
2020-02-12 20:00:00 19.2 8 Sudeste 14 Sudeste 0 -- -- 29
2020-02-12 19:00:00 21.2 4 Sur 10 Oeste 0 -- -- 24
2020-02-12 18:00:00 23.7 7 Oeste 13 Oeste 0 -- -- 20
2020-02-12 17:00:00 25.6 10 Oeste 18 Oeste 0 -- -- 20
2020-02-12 16:00:00 25.3 10 Oeste 18 Oeste 0 -- -- 22
2020-02-12 15:00:00 25.8 8 Oeste 15 Oeste 0 -- -- 19
2020-02-12 14:00:00 25.7 9 Oeste 13 Oeste 0 -- -- 18
2020-02-12 13:00:00 25.6 8 Oeste 10 Oeste 0 -- -- 15
2020-02-12 12:00:00 24.5 6 Sudoeste 11 Oeste 0 -- -- 17
2020-02-12 11:00:00 24.5 6 Sudoeste 16 Este 0 -- -- 16
2020-02-12 10:00:00 23.6 10 Sudeste 21 Sudeste 0 -- -- 18
2020-02-12 09:00:00 22.6 16 Sudeste 32 Sudeste 0 -- -- 17
2020-02-12 08:00:00 21 13 Sur 33 Sudeste 0 -- -- 18
2020-02-12 07:00:00 20.6 17 Sudeste 33 Sudeste 0 -- -- 18
2020-02-12 06:00:00 17.4 2 Nordeste 21 Sudeste 0 -- -- 33
2020-02-12 05:00:00 18.9 16 Sudeste 26 Este 0 -- -- 20
2020-02-12 04:00:00 18.3 15 Sudeste 24 Sudeste 0 -- -- 22
2020-02-12 03:00:00 17.7 10 Sudeste 20 Este 0 -- -- 24
2020-02-12 02:00:00 18.7 6 Sudeste 24 Sudeste 0 -- -- 22
2020-02-12 01:00:00 18.7 13 Sudeste 21 Sudeste 0 -- -- 22
2020-02-12 00:00:00 20.1 13 Sudeste 24 Sudeste 0 -- -- 19
2020-02-11 23:00:00 20.5 12 Sudeste 31 Sudeste 0 -- -- 19
2020-02-11 22:00:00 20.5 19 Sudeste 32 Sur 0 -- -- 19
2020-02-11 21:00:00 19.6 14 Sudeste 26 Sudeste 0 -- -- 20
2020-02-11 20:00:00 17.7 2 Sudeste 24 Sudeste 0 -- -- 66
2020-02-11 19:00:00 20.1 9 Sur 24 Sur 0 -- -- 21
2020-02-11 18:00:00 22.5 4 Sur 20 Noroeste 0 -- -- 52
2020-02-11 17:00:00 22 10 Oeste 16 Oeste 0 -- -- 57
2020-02-11 16:00:00 24.3 6 Noroeste 32 Este 0 -- -- 38
2020-02-11 15:00:00 26.1 13 Sur 31 Sudeste 0 -- -- 14
2020-02-11 14:00:00 26 15 Sudeste 43 Sudeste 0 -- -- 17
2020-02-11 13:00:00 25.1 21 Sudeste 42 Sudeste 0 -- -- 17
2020-02-11 12:00:00 24.4 22 Sudeste 42 Sudeste 0 -- -- 16
2020-02-11 11:00:00 23.7 21 Sudeste 40 Sur 0 -- -- 19
2020-02-11 10:00:00 22.7 10 Sudeste 28 Sur 0 -- -- 22
2020-02-11 09:00:00 20.8 12 Sur 30 Sudeste 0 -- -- 27
2020-02-11 08:00:00 13.5 3 Sur 12 Sudoeste 0 -- -- 88
2020-02-11 07:00:00 13.4 5 Sudeste 19 Sudeste 0 -- -- 51
2020-02-11 06:00:00 12.5 7 Este 14 Sudeste 0 -- -- 79
2020-02-11 05:00:00 13 8 Sur 13 Sudeste 0 -- -- 86
2020-02-11 04:00:00 12.5 11 Sudeste 14 Sudeste 0 -- -- 76
2020-02-11 03:00:00 12.7 8 Sudeste 14 Sudeste 0 -- -- 81
2020-02-11 02:00:00 12.6 11 Sudeste 13 Sudeste 0 -- -- 85
2020-02-11 01:00:00 12.9 8 Sur 12 Sudeste 0 -- -- 81
2020-02-11 00:00:00 13.4 9 Sudeste 12 Sudeste 0 -- -- 77
2020-02-10 23:00:00 14.7 9 Este 14 Sudoeste 0 -- -- 87
2020-02-10 22:00:00 14 5 Sur 15 Este 0 -- -- 78
2020-02-10 21:00:00 14.6 9 Sudeste 12 Sudeste 0 -- -- 83
2020-02-10 20:00:00 15.7 3 Sur 9 Este 0 -- -- 85
2020-02-10 19:00:00 17 5 Este 13 Nordeste 0 -- -- 82
2020-02-10 18:00:00 19.3 10 Nordeste 16 Nordeste 0 -- -- 74
2020-02-10 17:00:00 20.5 5 Noroeste 14 Oeste 0 -- -- 67
2020-02-10 16:00:00 20.4 10 Oeste 17 Oeste 0 -- -- 69
2020-02-10 15:00:00 19.9 10 Oeste 18 Oeste 0 -- -- 68
2020-02-10 14:00:00 19.6 11 Oeste 33 Sudeste 0 -- -- 66
2020-02-10 13:00:00 19.7 10 Sudoeste 49 Este 0 -- -- 66
2020-02-10 12:00:00 18.9 27 Sudeste 44 Sudeste 0 -- -- 66
2020-02-10 11:00:00 18.2 18 Sudeste 38 Sudeste 0 -- -- 70
2020-02-10 10:00:00 16.7 15 Sudeste 37 Sudeste 0 -- -- 76
2020-02-10 09:00:00 15.6 15 Sudeste 42 Este 0 -- -- 81
2020-02-10 08:00:00 15.2 25 Este 44 Sudeste 0 -- -- 81
2020-02-10 07:00:00 15.1 20 Este 28 Este 0 -- -- 84
2020-02-10 06:00:00 15 15 Este 22 Nordeste 0 -- -- 87
2020-02-10 05:00:00 15.2 10 Este 19 Este 0 -- -- 88
2020-02-10 04:00:00 15.2 9 Este 33 Nordeste 0 -- -- 85
2020-02-10 03:00:00 15.1 11 Este 20 Este 0 -- -- 89
2020-02-10 02:00:00 15.2 9 Este 22 Este 0 -- -- 93
2020-02-10 01:00:00 15.3 11 Este 20 Este 0 -- -- 95
2020-02-10 00:00:00 15.5 10 Nordeste 19 Nordeste 0 -- -- 95
2020-02-09 23:00:00 15.5 13 Nordeste 19 Nordeste 0.6 -- -- 95
2020-02-09 22:00:00 15.7 5 Este 20 Este 0 -- -- 93
2020-02-09 21:00:00 15.4 12 Este 19 Este 1 -- -- 94
2020-02-09 20:00:00 15.8 4 Sudeste 10 Nordeste 0.2 -- -- 87
2020-02-09 19:00:00 16.3 2 Este 18 Nordeste 0 -- -- 84
2020-02-09 18:00:00 17.9 12 Nordeste 24 Nordeste 0 -- -- 71
2020-02-09 17:00:00 16.9 16 Nordeste 27 Nordeste 0 -- -- 80
2020-02-09 16:00:00 17.6 14 Nordeste 31 Nordeste 0 -- -- 78
2020-02-09 15:00:00 19.1 14 Nordeste 26 Nordeste 0 -- -- 72
2020-02-09 14:00:00 18.1 14 Nordeste 23 Nordeste 0 -- -- 83
2020-02-09 13:00:00 17.7 9 Nordeste 19 Nordeste 0 -- -- 85
2020-02-09 12:00:00 17.3 5 Norte 20 Noroeste 0 -- -- 89
2020-02-09 11:00:00 17 4 Nordeste 10 Sur 0 -- -- 91
2020-02-09 10:00:00 15.9 4 Sudeste 9 Sur 0 -- -- 93
2020-02-09 09:00:00 15.3 6 Este 15 Oeste 0 -- -- 95
2020-02-09 08:00:00 15.3 3 Nordeste 9 Este 0.4 -- -- 94
2020-02-09 07:00:00 14.9 4 Sur 16 Sudeste 1 -- -- 94
2020-02-09 06:00:00 15 5 Sur 10 Nordeste 0.6 -- -- 93
2020-02-09 05:00:00 14.9 8 Este 12 Este 0 -- -- 92
2020-02-09 04:00:00 14.6 8 Sudeste 12 Este 0 -- -- 91
2020-02-09 03:00:00 15 7 Sudeste 13 Sudeste 0 -- -- 90
2020-02-09 02:00:00 14.8 7 Este 14 Sudeste 0 -- -- 85
2020-02-09 01:00:00 15.1 6 Sudeste 13 Este 0 -- -- 90
2020-02-09 00:00:00 15.4 7 Sudeste 13 Este 0 -- -- 92
2020-02-08 23:00:00 15.7 4 Nordeste 9 Nordeste 0 -- -- 90
2020-02-08 22:00:00 15.4 5 Este 14 Este 0 -- -- 89
2020-02-08 21:00:00 15.7 7 Este 19 Este 0 -- -- 87
2020-02-08 20:00:00 15.8 10 Sudeste 18 Este 0 -- -- 81
2020-02-08 19:00:00 16 9 Este 26 Nordeste 0 -- -- 80
2020-02-08 18:00:00 17.6 18 Nordeste 36 Nordeste 0 -- -- 74
2020-02-08 17:00:00 19.2 20 Nordeste 31 Nordeste 0 -- -- 66
2020-02-08 16:00:00 19.7 16 Nordeste 28 Nordeste 0 -- -- 63
2020-02-08 15:00:00 19.8 15 Nordeste 29 Nordeste 0 -- -- 61
2020-02-08 14:00:00 19.4 19 Nordeste 28 Norte 0 -- -- 64
2020-02-08 13:00:00 20.1 14 Nordeste 27 Este 0 -- -- 60
2020-02-08 12:00:00 19 18 Nordeste 28 Nordeste 0 -- -- 63
2020-02-08 11:00:00 18.2 12 Nordeste 22 Este 0 -- -- 66
2020-02-08 10:00:00 16.7 11 Nordeste 17 Este 0 -- -- 73
2020-02-08 09:00:00 15.1 9 Este 12 Este 0 -- -- 82
2020-02-08 08:00:00 14.7 5 Este 12 Este 0 -- -- 84
2020-02-08 07:00:00 14.6 3 Sudeste 14 Sudeste 0 -- -- 84
2020-02-08 06:00:00 13.5 11 Sudeste 15 Sudeste 0 -- -- 85
2020-02-08 05:00:00 13.4 12 Sudeste 15 Sudeste 0 -- -- 85
2020-02-08 04:00:00 14.4 8 Sudeste 13 Sudeste 0 -- -- 83
2020-02-08 03:00:00 12.4 6 Sudeste 15 Sudeste 0 -- -- 72
2020-02-08 02:00:00 12.7 10 Sudeste 14 Sudeste 0 -- -- 71
2020-02-08 01:00:00 13.5 13 Sudeste 18 Este 0 -- -- 83
2020-02-08 00:00:00 14.3 13 Este 18 Este 0 -- -- 91
2020-02-07 23:00:00 14.5 10 Este 14 Este 0 -- -- 90
2020-02-07 22:00:00 15.1 8 Este 17 Este 0 -- -- 90
2020-02-07 21:00:00 15.3 11 Este 16 Este 0 -- -- 89
2020-02-07 20:00:00 15.5 8 Sudeste 11 Este 0 -- -- 86
2020-02-07 19:00:00 16.4 7 Nordeste 17 Nordeste 0 -- -- 85
2020-02-07 18:00:00 18.6 12 Nordeste 18 Norte 0 -- -- 74
2020-02-07 17:00:00 20.3 12 Nordeste 22 Norte 0 -- -- 67
2020-02-07 16:00:00 20.5 13 Nordeste 23 Nordeste 0 -- -- 65
2020-02-07 15:00:00 20.3 14 Nordeste 26 Este 0 -- -- 66
2020-02-07 14:00:00 20.7 12 Nordeste 22 Este 0 -- -- 65
2020-02-07 13:00:00 20.4 10 Norte 20 Norte 0 -- -- 67
2020-02-07 12:00:00 20.2 9 Nordeste 16 Nordeste 0 -- -- 68
2020-02-07 11:00:00 18.2 9 Nordeste 16 Nordeste 0 -- -- 74
2020-02-07 10:00:00 17.3 9 Este 14 Nordeste 0 -- -- 81
2020-02-07 09:00:00 15.1 10 Sudeste 17 Sudeste 0 -- -- 88
2020-02-07 08:00:00 13.9 13 Sudeste 18 Sudeste 0 -- -- 89
2020-02-07 07:00:00 15.1 10 Este 18 Sudeste 0 -- -- 88
2020-02-07 06:00:00 14.1 13 Sudeste 18 Sudeste 0 -- -- 88
2020-02-07 05:00:00 14.6 12 Sudeste 18 Sudeste 0 -- -- 89
2020-02-07 04:00:00 14.4 12 Sudeste 15 Sudeste 0 -- -- 88
2020-02-07 03:00:00 14.8 10 Sudeste 16 Sudeste 0 -- -- 88
2020-02-07 02:00:00 14.8 11 Sudeste 15 Sudeste 0 -- -- 89
2020-02-07 01:00:00 14.7 10 Sudeste 14 Sudeste 0 -- -- 87
2020-02-07 00:00:00 15.2 9 Sudeste 12 Sudeste 0 -- -- 85
2020-02-06 23:00:00 14.4 9 Sudeste 14 Sudeste 0 -- -- 80
2020-02-06 22:00:00 14.7 10 Sudeste 12 Sudeste 0 -- -- 75
2020-02-06 21:00:00 15.3 6 Sudeste 10 Sudeste 0 -- -- 69
2020-02-06 20:00:00 15.8 6 Sudeste 9 Sudeste 0 -- -- 67
2020-02-06 19:00:00 16.9 0 Calma 5 Norte 0 -- -- 75
2020-02-06 18:00:00 18.1 4 Norte 12 Norte 0 -- -- 74
2020-02-06 17:00:00 20.4 5 Norte 13 Noroeste 0 -- -- 65
2020-02-06 16:00:00 21.3 8 Noroeste 13 Noroeste 0 -- -- 61
2020-02-06 15:00:00 21.1 6 Norte 12 Noroeste 0 -- -- 60
2020-02-06 14:00:00 20.5 7 Noroeste 13 Norte 0 -- -- 61
2020-02-06 13:00:00 19.4 10 Norte 16 Norte 0 -- -- 66
2020-02-06 12:00:00 18.8 8 Norte 13 Nordeste 0 -- -- 71
2020-02-06 11:00:00 18.7 4 Norte 10 Este 0 -- -- 68
2020-02-06 10:00:00 17.4 5 Este 10 Nordeste 0 -- -- 75
2020-02-06 09:00:00 14.1 7 Sudeste 16 Sudeste 0 -- -- 78
2020-02-06 08:00:00 12.7 12 Sudeste 15 Sudeste 0 -- -- 83
2020-02-06 07:00:00 13.7 8 Sudeste 14 Sudeste 0 -- -- 84
2020-02-06 06:00:00 13.1 11 Sudeste 14 Sudeste 0 -- -- 83
2020-02-06 05:00:00 14.3 8 Sudeste 12 Sudeste 0 -- -- 83
2020-02-06 04:00:00 15.1 5 Sudeste 8 Sudeste 0 -- -- 88
2020-02-06 03:00:00 15.9 0 Calma 5 Oeste 0 -- -- 91
2020-02-06 02:00:00 16.2 4 Noroeste 9 Noroeste 0 -- -- 90
2020-02-06 01:00:00 16.3 2 Norte 9 Noroeste 0 -- -- 89
2020-02-06 00:00:00 16.3 6 Noroeste 9 Noroeste 0 -- -- 92
2020-02-05 23:00:00 16.4 4 Oeste 9 Oeste 0 -- -- 92
2020-02-05 22:00:00 16.7 7 Noroeste 10 Oeste 0 -- -- 92
2020-02-05 21:00:00 16.6 4 Oeste 9 Oeste 0 -- -- 92
2020-02-05 20:00:00 16.8 4 Oeste 10 Oeste 0 -- -- 90
2020-02-05 19:00:00 17.1 6 Oeste 10 Oeste 0 -- -- 88
2020-02-05 18:00:00 18.3 7 Oeste 12 Oeste 0 -- -- 77
2020-02-05 17:00:00 20.1 7 Oeste 11 Oeste 0 -- -- 66
2020-02-05 16:00:00 17.3 4 Oeste 11 Noroeste 0 -- -- 87
2020-02-05 15:00:00 17.8 8 Noroeste 12 Oeste 0 -- -- 87
2020-02-05 14:00:00 17.4 6 Noroeste 11 Noroeste 0 -- -- 89
2020-02-05 13:00:00 17.6 6 Noroeste 12 Noroeste 0 -- -- 90
2020-02-05 12:00:00 18.2 7 Noroeste 13 Noroeste 0 -- -- 87
2020-02-05 11:00:00 18.9 5 Oeste 12 Oeste 0 -- -- 82
2020-02-05 10:00:00 17.9 4 Oeste 12 Noroeste 0 -- -- 82
2020-02-05 09:00:00 17 3 Sudeste 10 Este 0 -- -- 63
2020-02-05 08:00:00 16.8 4 Sudeste 9 Sur 0 -- -- 51
2020-02-05 07:00:00 17.1 4 Sur 10 Sudeste 0 -- -- 46
2020-02-05 06:00:00 17.6 6 Sur 14 Sudeste 0 -- -- 30
2020-02-05 05:00:00 19.1 8 Sur 14 Sudoeste 0 -- -- 26
2020-02-05 04:00:00 19 6 Sudoeste 13 Sur 0 -- -- 29
2020-02-05 03:00:00 20.6 6 Sur 19 Sur 0 -- -- 21
2020-02-05 02:00:00 21.9 8 Sudoeste 21 Sudoeste 0 -- -- 26
2020-02-05 01:00:00 22.6 13 Sudeste 25 Sudeste 0 -- -- 18
2020-02-05 00:00:00 22.9 12 Sur 35 Sudeste 0 -- -- 18
2020-02-04 23:00:00 23.9 17 Sudeste 35 Sudoeste 0 -- -- 16
2020-02-04 22:00:00 22.2 9 Sudoeste 37 Sudoeste 0 -- -- 33
2020-02-04 21:00:00 21.9 6 Oeste 36 Sudoeste 0 -- -- 27
2020-02-04 20:00:00 21.4 7 Sudeste 17 Sudeste 0 -- -- 24
2020-02-04 19:00:00 21.1 9 Sur 16 Sudoeste 0 -- -- 40
2020-02-04 18:00:00 21.7 12 Sudoeste 19 Oeste 0 -- -- 41
2020-02-04 17:00:00 23.9 8 Oeste 36 Oeste 0 -- -- 38
2020-02-04 11:00:00 -- -- -- -- -- -- -- -- --
2020-02-04 10:00:00 25.7 35 Sur 82 Sudeste 0 -- -- 18
2020-02-04 09:00:00 24.8 33 Sur 74 Sur 0 -- -- 20
2020-02-04 08:00:00 24.4 28 Sur 62 Sudeste 0 -- -- 20
2020-02-04 07:00:00 24.5 25 Sur 67 Sudeste 0 -- -- 19
2020-02-04 06:00:00 24.5 26 Sur 68 Sur 0 -- -- 18
2020-02-04 05:00:00 24.3 29 Sudeste 76 Sur 0 -- -- 18
2020-02-04 04:00:00 23.4 13 Sudeste 40 Este 0 -- -- 20
2020-02-04 03:00:00 19.4 30 Sudeste 41 Este 0 -- -- 44
2020-02-04 02:00:00 19.2 27 Sudeste 39 Este 0 -- -- 45
2020-02-04 01:00:00 19.2 25 Sudeste 40 Sudeste 0 -- -- 44
2020-02-04 00:00:00 20.2 24 Sudeste 41 Sudeste 0 -- -- 36
2020-02-03 23:00:00 22.7 6 Sur 15 Sudeste 0 -- -- 20
2020-02-03 22:00:00 21.4 8 Sur 17 Sudeste 0 -- -- 21
2020-02-03 21:00:00 19.2 8 Sudeste 14 Sur 0 -- -- 34
2020-02-03 20:00:00 20.1 5 Sudoeste 14 Sudoeste 0 -- -- 26
2020-02-03 19:00:00 20.8 7 Sudoeste 27 Sudoeste 0 -- -- 32
2020-02-03 18:00:00 25.2 9 Sudoeste 21 Sudoeste 0 -- -- 23
2020-02-03 17:00:00 26.7 5 Sudoeste 31 Sudoeste 0 -- -- 18
2020-02-03 16:00:00 26.1 8 Oeste 16 Norte 0 -- -- 24
2020-02-03 15:00:00 26.2 5 Noroeste 16 Oeste 0 -- -- 19
2020-02-03 14:00:00 26 9 Oeste 17 Noroeste 0 -- -- 20
2020-02-03 13:00:00 25.7 6 Oeste 23 Sudeste 0 -- -- 17
2020-02-03 12:00:00 26.1 8 Oeste 27 Sudoeste 0 -- -- 14
2020-02-03 11:00:00 24.8 11 Sudoeste 17 Sudoeste 0 -- -- 16
2020-02-03 10:00:00 23.9 5 Sudeste 18 Sudoeste 0 -- -- 23
2020-02-03 09:00:00 22.4 9 Sudoeste 43 Sur 0 -- -- 25
2020-02-03 08:00:00 23.3 20 Sur 45 Sur 0 -- -- 17
2020-02-03 07:00:00 22.9 21 Sudoeste 40 Sudoeste 0 -- -- 16
2020-02-03 06:00:00 18.1 10 Sur 14 Sur 0 -- -- 23
2020-02-03 05:00:00 18.9 6 Sur 22 Este 0 -- -- 24
2020-02-03 04:00:00 17.5 9 Sudeste 18 Sudeste 0 -- -- 27
2020-02-03 03:00:00 16.7 11 Sudeste 19 Sur 0 -- -- 29
2020-02-03 02:00:00 17.5 7 Sur 19 Sur 0 -- -- 27
2020-02-03 01:00:00 17.9 12 Sudeste 17 Sudeste 0 -- -- 26
2020-02-03 00:00:00 17.9 10 Sur 18 Sudeste 0 -- -- 26
2020-02-02 23:00:00 17.9 8 Sur 20 Sudeste 0 -- -- 27
2020-02-02 22:00:00 18.2 9 Sur 21 Sudeste 0 -- -- 27
2020-02-02 21:00:00 17.4 6 Sur 17 Sudeste 0 -- -- 31
2020-02-02 20:00:00 18.3 8 Sudeste 13 Sudeste 0 -- -- 31
2020-02-02 19:00:00 19.5 0 Calma 5 Oeste 0 -- -- 43
2020-02-02 18:00:00 23.1 3 Norte 8 Noroeste 0 -- -- 35
2020-02-02 17:00:00 23.7 4 Oeste 12 Oeste 0 -- -- 43
2020-02-02 16:00:00 23.4 5 Oeste 12 Oeste 0 -- -- 46
2020-02-02 15:00:00 24.5 4 Noroeste 12 Oeste 0 -- -- 34
2020-02-02 14:00:00 23.6 6 Oeste 13 Oeste 0 -- -- 38
2020-02-02 13:00:00 23.9 6 Oeste 13 Oeste 0 -- -- 29
2020-02-02 12:00:00 23.8 5 Oeste 8 Oeste 0 -- -- 29
2020-02-02 11:00:00 22.9 5 Oeste 8 Oeste 0 -- -- 33
2020-02-02 10:00:00 21.4 3 Oeste 10 Sur 0 -- -- 34
2020-02-02 09:00:00 17.3 8 Sur 19 Sudeste 0 -- -- 39
2020-02-02 08:00:00 15.6 15 Sudeste 20 Sudeste 0 -- -- 37
2020-02-02 07:00:00 15.4 10 Sudeste 14 Sudeste 0 -- -- 33
2020-02-02 06:00:00 16.3 7 Sur 17 Sudeste 0 -- -- 33
2020-02-02 05:00:00 18.5 11 Sudeste 25 Sudeste 0 -- -- 27
2020-02-02 04:00:00 19 17 Sudeste 27 Sudeste 0 -- -- 29
2020-02-02 03:00:00 19.2 13 Sudeste 32 Sudeste 0 -- -- 36
2020-02-02 02:00:00 19.7 8 Sudeste 32 Sur 0 -- -- 40
2020-02-02 01:00:00 20.1 13 Sudeste 30 Sudeste 0 -- -- 40
2020-02-02 00:00:00 19.7 11 Sudeste 24 Sudeste 0 -- -- 39
2020-02-01 23:00:00 19.6 11 Sudeste 22 Este 0 -- -- 34
2020-02-01 22:00:00 20.4 12 Sudeste 28 Sudeste 0 -- -- 34
2020-02-01 21:00:00 20.9 14 Sudeste 29 Sudeste 0 -- -- 36
2020-02-01 20:00:00 20.6 12 Sudeste 24 Sudeste 0 -- -- 34
2020-02-01 19:00:00 21.2 13 Sudeste 28 Sudeste 0 -- -- 30
2020-02-01 18:00:00 24 18 Sudeste 33 Sudeste 0 -- -- 24
2020-02-01 17:00:00 25.3 20 Sudeste 35 Sudeste 0 -- -- 24
2020-02-01 16:00:00 25.9 18 Este 33 Este 0 -- -- 25
2020-02-01 15:00:00 26.6 16 Este 38 Este 0 -- -- 26
2020-02-01 14:00:00 26.1 21 Sudeste 39 Sudeste 0 -- -- 25
2020-02-01 13:00:00 25.5 21 Este 38 Sudeste 0 -- -- 31
2020-02-01 12:00:00 25 18 Este 35 Este 0 -- -- 31
2020-02-01 11:00:00 24.1 22 Este 35 Este 0 -- -- 22
2020-02-01 10:00:00 23.2 18 Sudeste 28 Sudeste 0 -- -- 23
2020-02-01 09:00:00 20.5 12 Sudeste 21 Sudeste 0 -- -- 21
2020-02-01 08:00:00 19.1 13 Sudeste 24 Sudeste 0 -- -- 25
2020-02-01 07:00:00 19.7 18 Sudeste 29 Sudeste 0 -- -- 23
2020-02-01 06:00:00 20.4 17 Sudeste 34 Sudeste 0 -- -- 21
2020-02-01 05:00:00 20.3 19 Este 29 Este 0 -- -- 20
2020-02-01 04:00:00 19.5 19 Sudeste 27 Sudeste 0 -- -- 24
2020-02-01 03:00:00 18.3 15 Sudeste 21 Sudeste 0 -- -- 30
2020-02-01 02:00:00 16 4 Sudeste 11 Sudeste 0 -- -- 35
2020-02-01 01:00:00 16.6 8 Sudeste 12 Sudeste 0 -- -- 34
2020-02-01 00:00:00 17.2 5 Sudeste 12 Este 0 -- -- 32
2020-01-31 23:00:00 18.3 5 Sudeste 17 Sudeste 0 -- -- 31
2020-01-31 22:00:00 19 4 Noroeste 14 Este 0 -- -- 27
2020-01-31 21:00:00 19.5 10 Este 15 Sudeste 0 -- -- 26
2020-01-31 20:00:00 19.3 6 Sudeste 14 Sudeste 0 -- -- 29
2020-01-31 19:00:00 19.6 8 Sudeste 10 Sudeste 0 -- -- 28
2020-01-31 18:00:00 21.5 0 Calma 7 Oeste 0 -- -- 49
2020-01-31 17:00:00 25.8 3 Norte 8 Norte 0 -- -- 29
2020-01-31 16:00:00 25.4 5 Noroeste 10 Noroeste 0 -- -- 26
2020-01-31 15:00:00 25.6 4 Oeste 13 Oeste 0 -- -- 25
2020-01-31 14:00:00 25 6 Oeste 13 Oeste 0 -- -- 25
2020-01-31 13:00:00 24.4 6 Oeste 12 Sudoeste 0 -- -- 24
2020-01-31 12:00:00 24.5 5 Oeste 9 Oeste 0 -- -- 23
2020-01-31 11:00:00 24.4 3 Oeste 8 Sudoeste 0 -- -- 24
2020-01-31 10:00:00 22.7 4 Sudoeste 11 Sudoeste 0 -- -- 25
2020-01-31 09:00:00 20.6 3 Sur 18 Sudeste 0 -- -- 26
2020-01-31 08:00:00 20.8 7 Sur 22 Sudeste 0 -- -- 18
2020-01-31 07:00:00 21 11 Sudeste 23 Sudeste 0 -- -- 17
2020-01-31 06:00:00 19.1 4 Sudeste 10 Sur 0 -- -- 25
2020-01-31 05:00:00 17.9 6 Sur 15 Sudeste 0 -- -- 29
2020-01-31 04:00:00 18.7 9 Sudeste 18 Sudeste 0 -- -- 27
2020-01-31 03:00:00 17.8 12 Sudeste 18 Sudeste 0 -- -- 31
2020-01-31 02:00:00 18.6 12 Sudeste 19 Sudeste 0 -- -- 26
2020-01-31 01:00:00 18 12 Sudeste 17 Sudeste 0 -- -- 31
2020-01-31 00:00:00 19 11 Sudeste 16 Sudeste 0 -- -- 28
2020-01-30 23:00:00 18.7 9 Sudeste 14 Sudeste 0 -- -- 31
2020-01-30 22:00:00 18.8 8 Sur 16 Sudeste 0 -- -- 34
2020-01-30 21:00:00 18.9 13 Sudeste 17 Sudeste 0 -- -- 36
2020-01-30 20:00:00 19.3 10 Sudeste 14 Sudeste 0 -- -- 38
2020-01-30 19:00:00 20.9 3 Sur 6 Sudeste 0 -- -- 30
2020-01-30 18:00:00 24 3 Sudoeste 7 Oeste 0 -- -- 32
2020-01-30 17:00:00 24.4 6 Oeste 12 Oeste 0 -- -- 29
2020-01-30 16:00:00 25.6 6 Oeste 13 Sudoeste 0 -- -- 23
2020-01-30 15:00:00 25.7 6 Oeste 10 Oeste 0 -- -- 21
2020-01-30 14:00:00 26 8 Oeste 13 Oeste 0 -- -- 22
2020-01-30 13:00:00 26.7 5 Oeste 9 Oeste 0 -- -- 20
2020-01-30 12:00:00 26.6 5 Oeste 7 Oeste 0 -- -- 20
2020-01-30 11:00:00 26.3 4 Noroeste 6 Sudoeste 0 -- -- 22
2020-01-30 10:00:00 24.7 6 Sudeste 18 Sudeste 0 -- -- 23
2020-01-30 09:00:00 21.5 13 Sudeste 23 Sudeste 0 -- -- 25
2020-01-30 08:00:00 20.6 14 Sudeste 22 Sudeste 0 -- -- 25
2020-01-30 07:00:00 19.6 8 Sur 18 Sudeste 0 -- -- 29
2020-01-30 06:00:00 18.6 8 Sur 12 Sudeste 0 -- -- 32
2020-01-30 05:00:00 18.4 9 Sur 17 Sudeste 0 -- -- 33
2020-01-30 04:00:00 16.4 8 Sudeste 13 Sudeste 0 -- -- 37
2020-01-30 03:00:00 16.8 4 Sur 18 Sudeste 0 -- -- 37
2020-01-30 02:00:00 17.5 12 Sudeste 19 Sudeste 0 -- -- 34
2020-01-30 01:00:00 16.2 6 Sudeste 10 Sudeste 0 -- -- 39
2020-01-30 00:00:00 16 3 Sur 12 Sudeste 0 -- -- 40
2020-01-29 23:00:00 16.2 4 Sudeste 12 Sudeste 0 -- -- 40
2020-01-29 22:00:00 16.7 5 Sur 9 Sudoeste 0 -- -- 39
2020-01-29 21:00:00 17.1 0 Calma 12 Sudeste 0 -- -- 39
2020-01-29 20:00:00 18.2 8 Sudeste 12 Sudeste 0 -- -- 41
2020-01-29 19:00:00 18.6 4 Sur 5 Noroeste 0 -- -- 47
2020-01-29 18:00:00 21.7 2 Norte 5 Noroeste 0 -- -- 37
2020-01-29 17:00:00 22.7 2 Sudoeste 9 Sudoeste 0 -- -- 32
2020-01-29 16:00:00 21.9 6 Oeste 10 Oeste 0 -- -- 27
2020-01-29 15:00:00 24 5 Oeste 9 Noroeste 0 -- -- 28
2020-01-29 14:00:00 22.4 5 Oeste 9 Oeste 0 -- -- 26
2020-01-29 13:00:00 22.4 7 Noroeste 10 Oeste 0 -- -- 29
2020-01-29 12:00:00 23 5 Noroeste 7 Noroeste 0 -- -- 24
2020-01-29 11:00:00 22.1 4 Norte 6 Norte 0 -- -- 25
2020-01-29 10:00:00 19.9 3 Sur 17 Sudeste 0 -- -- 34
2020-01-29 09:00:00 15.8 15 Sudeste 19 Sudeste 0 -- -- 38
2020-01-29 08:00:00 14.3 16 Sudeste 21 Sudeste 0 -- -- 39
2020-01-29 07:00:00 14 17 Sudeste 21 Sudeste 0 -- -- 39
2020-01-29 06:00:00 14 15 Sudeste 21 Sudeste 0 -- -- 40
2020-01-29 05:00:00 13.9 16 Sudeste 23 Sudeste 0 -- -- 40
2020-01-29 04:00:00 14.1 14 Sudeste 21 Sudeste 0 -- -- 37
2020-01-29 03:00:00 13.8 11 Sudeste 19 Sudeste 0 -- -- 43
2020-01-29 02:00:00 12.7 8 Sur 11 Sur 0 -- -- 45
2020-01-29 01:00:00 13.1 8 Sur 13 Sur 0 -- -- 52
2020-01-29 00:00:00 13.3 7 Sur 13 Sudeste 0 -- -- 51
2020-01-28 23:00:00 13.1 10 Sudeste 14 Sudeste 0 -- -- 65
2020-01-28 22:00:00 13.7 8 Sur 10 Sur 0 -- -- 76
2020-01-28 21:00:00 14.1 5 Sur 16 Este 0 -- -- 69
2020-01-28 20:00:00 14.4 7 Sudeste 14 Sudeste 0 -- -- 71
2020-01-28 19:00:00 15.9 0 Calma 8 Oeste 0 -- -- 72
2020-01-28 18:00:00 19.8 4 Noroeste 10 Oeste 0 -- -- 52
2020-01-28 17:00:00 21.8 0 Calma 14 Oeste 0 -- -- 41
2020-01-28 16:00:00 19.7 9 Oeste 15 Oeste 0 -- -- 58
2020-01-28 15:00:00 20.1 8 Oeste 14 Oeste 0 -- -- 62
2020-01-28 14:00:00 19.7 8 Noroeste 12 Noroeste 0 -- -- 67
2020-01-28 13:00:00 19.8 5 Oeste 12 Noroeste 0 -- -- 66
2020-01-28 12:00:00 18.7 7 Norte 11 Noroeste 0 -- -- 66
2020-01-28 11:00:00 16.5 6 Noroeste 12 Nordeste 0 -- -- 69
2020-01-28 10:00:00 18 3 Sudeste 17 Sudeste 0 -- -- 53
2020-01-28 09:00:00 13.6 12 Sudeste 18 Sudeste 0 -- -- 66
2020-01-28 08:00:00 12.2 12 Sudeste 18 Sudeste 0 -- -- 65
2020-01-28 07:00:00 13.6 13 Sudeste 27 Sudeste 0 -- -- 74
2020-01-28 06:00:00 12.3 9 Sur 16 Sur 0 -- -- 70
2020-01-28 05:00:00 13.4 6 Sur 22 Sudoeste 0 -- -- 73
2020-01-28 04:00:00 13.5 7 Sur 32 Sur 0 -- -- 73
2020-01-28 03:00:00 14.2 18 Sudoeste 36 Sur 0 -- -- 72
2020-01-28 02:00:00 13.9 12 Sudeste 27 Este 0 -- -- 78
2020-01-28 01:00:00 13.2 12 Este 22 Este 0 -- -- 80
2020-01-28 00:00:00 12.7 13 Sudeste 23 Este 0 -- -- 79
2020-01-27 23:00:00 12.5 13 Sudeste 18 Sudeste 0 -- -- 79
2020-01-27 22:00:00 13.3 13 Sudeste 23 Este 0 -- -- 79
2020-01-27 21:00:00 12.6 16 Este 21 Sudeste 0 -- -- 77
2020-01-27 20:00:00 13.7 14 Este 25 Este 0 -- -- 75
2020-01-27 19:00:00 14.9 17 Nordeste 28 Nordeste 0 -- -- 74
2020-01-27 18:00:00 17.4 5 Sudeste 19 Sudeste 0 -- -- 61
2020-01-27 17:00:00 18.2 8 Sudeste 18 Este 0 -- -- 60
2020-01-27 16:00:00 19.4 7 Oeste 27 Sudeste 0 -- -- 55
2020-01-27 15:00:00 19 14 Este 34 Este 0 -- -- 54
2020-01-27 14:00:00 18.1 21 Este 35 Este 0 -- -- 56
2020-01-27 13:00:00 18.9 18 Este 34 Sudeste 0 -- -- 56
2020-01-27 12:00:00 17.7 17 Sudeste 32 Este 0 -- -- 55
2020-01-27 11:00:00 17.3 18 Sudeste 31 Sudeste 0 -- -- 62
2020-01-27 10:00:00 15.5 14 Este 23 Sudeste 0 -- -- 68
2020-01-27 09:00:00 13.6 14 Sudeste 22 Sudeste 0 -- -- 79
2020-01-27 08:00:00 12.6 16 Sudeste 23 Este 0 -- -- 79
2020-01-27 07:00:00 12 15 Sudeste 20 Sudeste 0 -- -- 83
2020-01-27 06:00:00 12 15 Sudeste 22 Sudeste 0 -- -- 84
2020-01-27 05:00:00 12.5 13 Sudeste 22 Sudeste 0 -- -- 81
2020-01-27 04:00:00 12.6 14 Sudeste 25 Sudeste 0 -- -- 83
2020-01-27 03:00:00 12.5 15 Sudeste 25 Sudeste 0 -- -- 83
2020-01-27 02:00:00 12.8 16 Sudeste 23 Sudeste 0 -- -- 77
2020-01-27 01:00:00 12.8 16 Sudeste 27 Sudeste 0 -- -- 79
2020-01-27 00:00:00 12.8 18 Sudeste 26 Sudeste 0 -- -- 76
2020-01-26 23:00:00 12.7 17 Sudeste 23 Sudeste 0 -- -- 76
2020-01-26 22:00:00 12 15 Sudeste 20 Sudeste 0 -- -- 78
2020-01-26 21:00:00 12.3 14 Sudeste 21 Sudeste 0 -- -- 78
2020-01-26 20:00:00 12.7 12 Sudeste 18 Este 0 -- -- 82
2020-01-26 19:00:00 14.4 13 Este 19 Este 0 -- -- 83
2020-01-26 18:00:00 16 11 Nordeste 17 Nordeste 0 -- -- 73
2020-01-26 17:00:00 16 9 Norte 21 Norte 0 -- -- 74
2020-01-26 16:00:00 16.3 7 Noroeste 18 Noroeste 0 -- -- 75
2020-01-26 15:00:00 16.5 9 Noroeste 15 Norte 0 -- -- 78
2020-01-26 14:00:00 16.1 6 Noroeste 19 Norte 0 -- -- 82
2020-01-26 13:00:00 18 10 Nordeste 24 Norte 0 -- -- 65
2020-01-26 12:00:00 17.5 10 Nordeste 18 Nordeste 0 -- -- 68
2020-01-26 11:00:00 17 6 Este 9 Sudeste 0 -- -- 63
2020-01-26 10:00:00 16.6 4 Este 11 Sudeste 0 -- -- 67
2020-01-26 09:00:00 13.7 8 Sudeste 13 Sudeste 0 -- -- 76
2020-01-26 08:00:00 13.3 9 Sudeste 16 Sudeste 0 -- -- 76
2020-01-26 07:00:00 12.5 12 Sudeste 17 Sudeste 0 -- -- 77
2020-01-26 06:00:00 12.2 13 Sudeste 17 Sudeste 0 -- -- 75
2020-01-26 05:00:00 12.3 12 Sudeste 18 Sudeste 0 -- -- 69
2020-01-26 04:00:00 11.5 14 Sudeste 17 Sudeste 0 -- -- 70
2020-01-26 03:00:00 11.6 13 Sudeste 17 Sudeste 0 -- -- 71
2020-01-26 02:00:00 12.2 10 Sudeste 14 Sudeste 0 -- -- 74
2020-01-26 01:00:00 12.6 9 Sur 13 Sudeste 0 -- -- 71
2020-01-26 00:00:00 12.5 10 Sudeste 12 Sudeste 0 -- -- 76
2020-01-25 23:00:00 14.2 4 Sur 11 Sudeste 0 -- -- 76
2020-01-25 22:00:00 13.5 10 Sudeste 14 Sudeste 0 -- -- 78
2020-01-25 21:00:00 14.2 7 Sudeste 10 Sudeste 0 -- -- 76
2020-01-25 20:00:00 13.9 7 Sur 10 Sudeste 0 -- -- 76
2020-01-25 19:00:00 15 0 Calma 9 Oeste 0 -- -- 72
2020-01-25 18:00:00 15.9 5 Oeste 11 Oeste 0 -- -- 71
2020-01-25 17:00:00 16.8 8 Oeste 17 Oeste 0 -- -- 67
2020-01-25 16:00:00 18.7 7 Noroeste 17 Noroeste 0 -- -- 60
2020-01-25 15:00:00 19.1 9 Oeste 17 Noroeste 0 -- -- 59
2020-01-25 14:00:00 18.9 8 Oeste 14 Noroeste 0 -- -- 63
2020-01-25 13:00:00 19.1 9 Noroeste 17 Oeste 0 -- -- 61
2020-01-25 12:00:00 18.6 6 Oeste 10 Oeste 0 -- -- 60
2020-01-25 11:00:00 17.2 5 Oeste 12 Sudoeste 0 -- -- 65
2020-01-25 10:00:00 15.7 4 Oeste 10 Sudoeste 0 -- -- 70
2020-01-25 09:00:00 13.5 6 Sur 13 Sur 0 -- -- 77
2020-01-25 08:00:00 12.7 7 Sur 12 Sur 0 -- -- 80
2020-01-25 07:00:00 13.5 5 Sudoeste 22 Sudoeste 0 -- -- 78
2020-01-25 06:00:00 14.5 7 Sudoeste 16 Oeste 0 -- -- 74
2020-01-25 05:00:00 14.1 4 Sudoeste 12 Sur 0 -- -- 78
2020-01-25 04:00:00 12.8 7 Sur 13 Sudeste 0 -- -- 79
2020-01-25 03:00:00 13.1 6 Sur 13 Sudoeste 0 -- -- 82
2020-01-25 02:00:00 13.7 6 Sudoeste 14 Sudoeste 0 -- -- 80
2020-01-25 01:00:00 14.4 7 Sudoeste 14 Sudoeste 0 -- -- 78
2020-01-25 00:00:00 14.2 5 Sudoeste 14 Oeste 0 -- -- 75
2020-01-24 23:00:00 14.7 9 Sudoeste 17 Sudoeste 0 -- -- 72
2020-01-24 22:00:00 15.1 4 Oeste 15 Sudoeste 0 -- -- 72
2020-01-24 21:00:00 14.5 5 Sudoeste 15 Sudoeste 0 -- -- 76
2020-01-24 20:00:00 15.2 8 Sudoeste 14 Oeste 0 -- -- 76
2020-01-24 19:00:00 15.4 4 Oeste 19 Oeste 0 -- -- 74
2020-01-24 18:00:00 17.6 11 Oeste 20 Oeste 0 -- -- 63
2020-01-24 17:00:00 18.7 10 Oeste 25 Oeste 0 -- -- 61
2020-01-24 16:00:00 18.2 13 Oeste 21 Oeste 0 -- -- 63
2020-01-24 15:00:00 18.3 9 Oeste 17 Noroeste 0 -- -- 66
2020-01-24 14:00:00 16 8 Noroeste 27 Noroeste 0 -- -- 76
2020-01-24 13:00:00 18.4 10 Noroeste 17 Noroeste 0 -- -- 66
2020-01-24 12:00:00 17.8 8 Oeste 15 Oeste 0 -- -- 68
2020-01-24 11:00:00 16.9 7 Oeste 14 Sudoeste 0 -- -- 69
2020-01-24 10:00:00 15.7 7 Sudoeste 12 Sudoeste 0 -- -- 71
2020-01-24 09:00:00 13.3 6 Sudeste 15 Sur 0 -- -- 69
2020-01-24 08:00:00 12 11 Sur 17 Sudeste 0 -- -- 68
2020-01-24 07:00:00 11.3 10 Sur 15 Sudeste 0 -- -- 66
2020-01-24 06:00:00 12 10 Sur 16 Sur 0 -- -- 62
2020-01-24 05:00:00 11.9 9 Sur 17 Sudeste 0 -- -- 67
2020-01-24 04:00:00 11.9 9 Sudeste 17 Sudeste 0 -- -- 65
2020-01-24 03:00:00 12.2 9 Sur 14 Sur 0 -- -- 65
2020-01-24 02:00:00 12.4 9 Sur 16 Sur 0 -- -- 66
2020-01-24 01:00:00 12.1 11 Sur 15 Sudeste 0 -- -- 65
2020-01-24 00:00:00 12 10 Sur 16 Sudeste 0 -- -- 66
2020-01-23 23:00:00 12.5 9 Sur 14 Sur 0 -- -- 71
2020-01-23 22:00:00 12.6 8 Sur 14 Sur 0 -- -- 76
2020-01-23 21:00:00 13.3 4 Sur 11 Sudoeste 0 -- -- 74
2020-01-23 20:00:00 14.4 4 Sur 9 Sur 0 -- -- 72
2020-01-23 19:00:00 15 3 Oeste 13 Noroeste 0 -- -- 70
2020-01-23 18:00:00 16.8 8 Noroeste 17 Noroeste 0 -- -- 64
2020-01-23 17:00:00 17.5 8 Oeste 16 Noroeste 0 -- -- 62
2020-01-23 16:00:00 18.2 9 Oeste 19 Oeste 0 -- -- 60
2020-01-23 15:00:00 18.6 11 Oeste 18 Noroeste 0 -- -- 61
2020-01-23 14:00:00 18.2 9 Oeste 16 Oeste 0 -- -- 62
2020-01-23 13:00:00 18 8 Oeste 15 Oeste 0 -- -- 65
2020-01-23 12:00:00 17.6 8 Sudoeste 17 Oeste 0 -- -- 64
2020-01-23 11:00:00 16.3 7 Sudoeste 15 Oeste 0.2 -- -- 68
2020-01-23 10:00:00 15.6 8 Oeste 16 Sudoeste 0 -- -- 68
2020-01-23 09:00:00 13.7 7 Sudoeste 13 Sudoeste 0 -- -- 78
2020-01-23 08:00:00 12.2 8 Sur 12 Sudoeste 0 -- -- 82
2020-01-23 07:00:00 12.8 8 Sudoeste 12 Sudoeste 0 -- -- 83
2020-01-23 06:00:00 12.3 5 Sur 18 Norte 0.2 -- -- 87
2020-01-23 05:00:00 13.8 9 Sudoeste 21 Oeste 0 -- -- 71
2020-01-23 04:00:00 12.9 10 Sudoeste 14 Sudoeste 0 -- -- 83
2020-01-23 03:00:00 13.8 9 Sudoeste 23 Sudoeste 0 -- -- 71
2020-01-23 02:00:00 13.9 11 Sudoeste 24 Sudoeste 0 -- -- 70
2020-01-23 01:00:00 12.6 15 Sudoeste 23 Oeste 0.2 -- -- 88
2020-01-23 00:00:00 14.2 6 Oeste 16 Oeste 0 -- -- 67
2020-01-22 23:00:00 13.2 9 Sudoeste 16 Sudoeste 0 -- -- 64
2020-01-22 22:00:00 13.2 9 Sudoeste 18 Sudoeste 0 -- -- 68
2020-01-22 21:00:00 14.2 11 Sudoeste 19 Sudoeste 0 -- -- 67
2020-01-22 20:00:00 14.3 9 Sudoeste 18 Sudoeste 0 -- -- 69
2020-01-22 19:00:00 14.4 5 Este 17 Oeste 0 -- -- 71
2020-01-22 18:00:00 16.2 8 Sudoeste 16 Sudoeste 0 -- -- 62
2020-01-22 17:00:00 17.2 12 Noroeste 19 Noroeste 0 -- -- 58
2020-01-22 16:00:00 17.1 11 Noroeste 22 Noroeste 0 -- -- 60
2020-01-22 15:00:00 18.1 12 Oeste 21 Oeste 0 -- -- 54
2020-01-22 14:00:00 17.4 9 Oeste 14 Noroeste 0 -- -- 61
2020-01-22 13:00:00 17.9 5 Oeste 15 Oeste 0 -- -- 57
2020-01-22 12:00:00 17.1 6 Norte 12 Norte 0 -- -- 58
2020-01-22 11:00:00 16.4 4 Noroeste 8 Oeste 0 -- -- 56
2020-01-22 10:00:00 14.9 5 Sudeste 15 Sudeste 0 -- -- 61
2020-01-22 09:00:00 10.6 14 Sudeste 19 Sudeste 0 -- -- 70
2020-01-22 08:00:00 9.9 13 Sudeste 18 Sudeste 0 -- -- 71
2020-01-22 07:00:00 9.7 13 Sudeste 17 Sudeste 0 -- -- 78
2020-01-22 06:00:00 9.8 13 Sudeste 15 Sudeste 0 -- -- 80
2020-01-22 05:00:00 9.9 12 Sudeste 15 Sur 0 -- -- 81
2020-01-22 04:00:00 10 12 Sudeste 15 Sur 0 -- -- 81
2020-01-22 03:00:00 10 12 Sudeste 14 Sudeste 0 -- -- 80
2020-01-22 02:00:00 10.6 9 Sudeste 13 Sudeste 0 -- -- 79
2020-01-22 01:00:00 11.6 7 Sudeste 10 Sudeste 0 -- -- 77
2020-01-22 00:00:00 12.1 6 Sur 10 Sur 0 -- -- 75